sensor_id;sensor_type;location;lat;lon;timestamp;P1;durP1;ratioP1;P2;durP2;ratioP2
34920;SDS011;21128;50.016;20.002;2023-03-31T00:01:24;18.43;;;8.90;;
34920;SDS011;21128;50.016;20.002;2023-03-31T00:04:10;15.85;;;8.50;;
34920;SDS011;21128;50.016;20.002;2023-03-31T00:07:04;14.63;;;8.40;;
34920;SDS011;21128;50.016;20.002;2023-03-31T00:09:50;18.00;;;8.67;;
34920;SDS011;21128;50.016;20.002;2023-03-31T00:12:39;16.73;;;9.20;;
34920;SDS011;21128;50.016;20.002;2023-03-31T00:15:25;11.53;;;8.20;;
34920;SDS011;21128;50.016;20.002;2023-03-31T00:18:12;16.70;;;9.00;;
34920;SDS011;21128;50.016;20.002;2023-03-31T00:23:59;15.73;;;8.57;;
34920;SDS011;21128;50.016;20.002;2023-03-31T00:26:47;13.57;;;9.10;;
34920;SDS011;21128;50.016;20.002;2023-03-31T00:29:32;16.10;;;8.10;;
34920;SDS011;21128;50.016;20.002;2023-03-31T00:32:20;14.87;;;9.30;;
34920;SDS011;21128;50.016;20.002;2023-03-31T00:35:05;13.70;;;9.90;;
34920;SDS011;21128;50.016;20.002;2023-03-31T00:37:53;14.17;;;9.80;;
34920;SDS011;21128;50.016;20.002;2023-03-31T00:40:45;17.53;;;10.23;;
34920;SDS011;21128;50.016;20.002;2023-03-31T00:43:35;16.40;;;9.70;;
34920;SDS011;21128;50.016;20.002;2023-03-31T00:46:23;14.23;;;10.13;;
34920;SDS011;21128;50.016;20.002;2023-03-31T00:49:17;16.73;;;10.40;;
34920;SDS011;21128;50.016;20.002;2023-03-31T00:52:24;17.67;;;9.97;;
34920;SDS011;21128;50.016;20.002;2023-03-31T00:55:15;16.67;;;10.60;;
34920;SDS011;21128;50.016;20.002;2023-03-31T00:58:06;16.50;;;10.10;;
34920;SDS011;21128;50.016;20.002;2023-03-31T01:00:59;16.63;;;10.27;;
34920;SDS011;21128;50.016;20.002;2023-03-31T01:03:47;15.97;;;9.77;;
34920;SDS011;21128;50.016;20.002;2023-03-31T01:06:47;13.23;;;9.57;;
34920;SDS011;21128;50.016;20.002;2023-03-31T01:09:46;16.47;;;10.23;;
34920;SDS011;21128;50.016;20.002;2023-03-31T01:12:33;16.47;;;9.60;;
34920;SDS011;21128;50.016;20.002;2023-03-31T01:15:22;18.23;;;10.70;;
34920;SDS011;21128;50.016;20.002;2023-03-31T01:18:08;15.50;;;9.60;;
34920;SDS011;21128;50.016;20.002;2023-03-31T01:27:23;13.73;;;9.40;;
34920;SDS011;21128;50.016;20.002;2023-03-31T01:30:46;15.83;;;9.13;;
34920;SDS011;21128;50.016;20.002;2023-03-31T01:46:44;13.10;;;8.33;;
34920;SDS011;21128;50.016;20.002;2023-03-31T01:55:29;14.73;;;8.37;;
34920;SDS011;21128;50.016;20.002;2023-03-31T01:58:36;15.70;;;9.00;;
34920;SDS011;21128;50.016;20.002;2023-03-31T02:01:28;10.97;;;8.00;;
34920;SDS011;21128;50.016;20.002;2023-03-31T02:04:23;13.70;;;8.75;;
34920;SDS011;21128;50.016;20.002;2023-03-31T02:07:31;11.93;;;8.03;;
34920;SDS011;21128;50.016;20.002;2023-03-31T02:10:21;13.70;;;8.60;;
34920;SDS011;21128;50.016;20.002;2023-03-31T02:13:10;10.90;;;7.93;;
34920;SDS011;21128;50.016;20.002;2023-03-31T02:15:59;13.53;;;8.70;;
34920;SDS011;21128;50.016;20.002;2023-03-31T02:18:50;14.93;;;8.50;;
34920;SDS011;21128;50.016;20.002;2023-03-31T02:21:46;10.23;;;7.27;;
34920;SDS011;21128;50.016;20.002;2023-03-31T02:24:34;10.90;;;8.43;;
34920;SDS011;21128;50.016;20.002;2023-03-31T02:27:34;14.20;;;7.70;;
34920;SDS011;21128;50.016;20.002;2023-03-31T02:30:29;10.87;;;7.00;;
34920;SDS011;21128;50.016;20.002;2023-03-31T02:33:26;9.73;;;7.10;;
34920;SDS011;21128;50.016;20.002;2023-03-31T02:36:12;11.47;;;7.03;;
34920;SDS011;21128;50.016;20.002;2023-03-31T02:38:59;10.43;;;7.53;;
34920;SDS011;21128;50.016;20.002;2023-03-31T02:41:49;10.67;;;7.20;;
34920;SDS011;21128;50.016;20.002;2023-03-31T02:44:36;10.97;;;6.70;;
34920;SDS011;21128;50.016;20.002;2023-03-31T02:47:23;12.53;;;6.43;;
34920;SDS011;21128;50.016;20.002;2023-03-31T02:50:09;8.05;;;6.40;;
34920;SDS011;21128;50.016;20.002;2023-03-31T02:59:05;8.83;;;5.70;;
34920;SDS011;21128;50.016;20.002;2023-03-31T03:04:57;7.13;;;5.27;;
34920;SDS011;21128;50.016;20.002;2023-03-31T03:07:57;7.60;;;5.33;;
34920;SDS011;21128;50.016;20.002;2023-03-31T03:11:01;6.97;;;5.07;;
34920;SDS011;21128;50.016;20.002;2023-03-31T03:14:12;9.03;;;4.50;;
34920;SDS011;21128;50.016;20.002;2023-03-31T03:17:09;8.63;;;4.87;;
34920;SDS011;21128;50.016;20.002;2023-03-31T03:20:00;10.90;;;5.57;;
34920;SDS011;21128;50.016;20.002;2023-03-31T03:22:52;6.07;;;4.07;;
34920;SDS011;21128;50.016;20.002;2023-03-31T03:25:37;6.30;;;4.60;;
34920;SDS011;21128;50.016;20.002;2023-03-31T03:28:23;8.50;;;4.70;;
34920;SDS011;21128;50.016;20.002;2023-03-31T03:31:08;7.23;;;4.80;;
34920;SDS011;21128;50.016;20.002;2023-03-31T03:33:54;11.35;;;4.90;;
34920;SDS011;21128;50.016;20.002;2023-03-31T03:36:40;7.70;;;4.35;;
34920;SDS011;21128;50.016;20.002;2023-03-31T03:39:26;6.65;;;4.10;;
34920;SDS011;21128;50.016;20.002;2023-03-31T03:42:12;5.93;;;3.83;;
34920;SDS011;21128;50.016;20.002;2023-03-31T03:44:58;6.47;;;3.83;;
34920;SDS011;21128;50.016;20.002;2023-03-31T03:47:43;9.00;;;4.05;;
34920;SDS011;21128;50.016;20.002;2023-03-31T03:50:29;5.83;;;3.53;;
34920;SDS011;21128;50.016;20.002;2023-03-31T03:53:15;8.17;;;3.60;;
34920;SDS011;21128;50.016;20.002;2023-03-31T03:56:00;6.90;;;3.63;;
34920;SDS011;21128;50.016;20.002;2023-03-31T03:58:47;10.57;;;3.87;;
34920;SDS011;21128;50.016;20.002;2023-03-31T04:01:33;7.70;;;3.73;;
34920;SDS011;21128;50.016;20.002;2023-03-31T04:04:18;9.53;;;3.57;;
34920;SDS011;21128;50.016;20.002;2023-03-31T04:07:04;7.23;;;3.77;;
34920;SDS011;21128;50.016;20.002;2023-03-31T04:09:56;7.23;;;3.10;;
34920;SDS011;21128;50.016;20.002;2023-03-31T04:12:41;6.83;;;3.10;;
34920;SDS011;21128;50.016;20.002;2023-03-31T04:15:27;7.43;;;3.53;;
34920;SDS011;21128;50.016;20.002;2023-03-31T04:18:12;7.63;;;3.57;;
34920;SDS011;21128;50.016;20.002;2023-03-31T04:21:07;7.93;;;3.60;;
34920;SDS011;21128;50.016;20.002;2023-03-31T04:23:56;5.77;;;3.40;;
34920;SDS011;21128;50.016;20.002;2023-03-31T04:26:48;7.07;;;3.50;;
34920;SDS011;21128;50.016;20.002;2023-03-31T04:29:34;6.43;;;4.17;;
34920;SDS011;21128;50.016;20.002;2023-03-31T04:32:21;8.87;;;3.60;;
34920;SDS011;21128;50.016;20.002;2023-03-31T04:35:07;6.30;;;3.30;;
34920;SDS011;21128;50.016;20.002;2023-03-31T04:37:53;6.40;;;3.43;;
34920;SDS011;21128;50.016;20.002;2023-03-31T04:43:33;7.63;;;3.50;;
34920;SDS011;21128;50.016;20.002;2023-03-31T04:46:19;5.07;;;3.07;;
34920;SDS011;21128;50.016;20.002;2023-03-31T04:49:04;9.17;;;3.50;;
34920;SDS011;21128;50.016;20.002;2023-03-31T04:51:50;10.93;;;3.50;;
34920;SDS011;21128;50.016;20.002;2023-03-31T04:54:36;8.47;;;3.93;;
34920;SDS011;21128;50.016;20.002;2023-03-31T04:57:21;6.50;;;3.60;;
34920;SDS011;21128;50.016;20.002;2023-03-31T05:00:07;8.60;;;3.80;;
34920;SDS011;21128;50.016;20.002;2023-03-31T05:02:53;10.00;;;4.47;;
34920;SDS011;21128;50.016;20.002;2023-03-31T05:05:45;8.80;;;3.87;;
34920;SDS011;21128;50.016;20.002;2023-03-31T05:08:31;11.53;;;3.70;;
34920;SDS011;21128;50.016;20.002;2023-03-31T05:11:18;9.30;;;3.93;;
34920;SDS011;21128;50.016;20.002;2023-03-31T05:14:03;5.37;;;3.50;;
34920;SDS011;21128;50.016;20.002;2023-03-31T05:16:49;11.10;;;3.80;;
34920;SDS011;21128;50.016;20.002;2023-03-31T05:19:35;9.23;;;3.50;;
34920;SDS011;21128;50.016;20.002;2023-03-31T05:22:21;8.17;;;3.53;;
34920;SDS011;21128;50.016;20.002;2023-03-31T05:25:07;10.67;;;4.63;;
34920;SDS011;21128;50.016;20.002;2023-03-31T05:27:56;9.37;;;4.10;;
34920;SDS011;21128;50.016;20.002;2023-03-31T05:30:41;8.53;;;4.00;;
34920;SDS011;21128;50.016;20.002;2023-03-31T05:33:27;10.33;;;4.73;;
34920;SDS011;21128;50.016;20.002;2023-03-31T05:36:14;12.63;;;4.40;;
34920;SDS011;21128;50.016;20.002;2023-03-31T05:39:05;14.57;;;4.80;;
34920;SDS011;21128;50.016;20.002;2023-03-31T05:41:52;15.03;;;4.80;;
34920;SDS011;21128;50.016;20.002;2023-03-31T05:44:38;11.93;;;4.73;;
34920;SDS011;21128;50.016;20.002;2023-03-31T05:47:23;13.87;;;5.43;;
34920;SDS011;21128;50.016;20.002;2023-03-31T05:50:09;12.97;;;5.60;;
34920;SDS011;21128;50.016;20.002;2023-03-31T05:52:54;15.20;;;5.67;;
34920;SDS011;21128;50.016;20.002;2023-03-31T05:55:40;14.00;;;5.30;;
34920;SDS011;21128;50.016;20.002;2023-03-31T05:58:25;13.20;;;5.23;;
34920;SDS011;21128;50.016;20.002;2023-03-31T06:01:13;8.70;;;4.80;;
34920;SDS011;21128;50.016;20.002;2023-03-31T06:04:06;15.67;;;5.53;;
34920;SDS011;21128;50.016;20.002;2023-03-31T06:06:51;9.80;;;5.23;;
34920;SDS011;21128;50.016;20.002;2023-03-31T06:09:44;12.17;;;6.20;;
34920;SDS011;21128;50.016;20.002;2023-03-31T06:12:31;9.47;;;6.07;;
34920;SDS011;21128;50.016;20.002;2023-03-31T06:15:17;12.23;;;6.50;;
34920;SDS011;21128;50.016;20.002;2023-03-31T06:18:02;15.17;;;6.13;;
34920;SDS011;21128;50.016;20.002;2023-03-31T06:20:50;10.67;;;5.97;;
34920;SDS011;21128;50.016;20.002;2023-03-31T06:23:36;11.87;;;5.10;;
34920;SDS011;21128;50.016;20.002;2023-03-31T06:26:22;10.27;;;5.63;;
34920;SDS011;21128;50.016;20.002;2023-03-31T06:29:08;10.87;;;5.30;;
34920;SDS011;21128;50.016;20.002;2023-03-31T06:31:54;12.10;;;5.73;;
34920;SDS011;21128;50.016;20.002;2023-03-31T06:34:40;10.85;;;5.60;;
34920;SDS011;21128;50.016;20.002;2023-03-31T06:37:26;7.83;;;4.77;;
34920;SDS011;21128;50.016;20.002;2023-03-31T06:40:11;9.90;;;4.80;;
34920;SDS011;21128;50.016;20.002;2023-03-31T06:42:58;9.20;;;4.47;;
34920;SDS011;21128;50.016;20.002;2023-03-31T06:45:44;20.30;;;4.40;;
34920;SDS011;21128;50.016;20.002;2023-03-31T06:48:29;12.40;;;4.53;;
34920;SDS011;21128;50.016;20.002;2023-03-31T06:51:15;6.70;;;3.60;;
34920;SDS011;21128;50.016;20.002;2023-03-31T06:54:01;7.47;;;4.10;;
34920;SDS011;21128;50.016;20.002;2023-03-31T06:56:47;10.17;;;3.50;;
34920;SDS011;21128;50.016;20.002;2023-03-31T06:59:33;8.93;;;4.07;;
34920;SDS011;21128;50.016;20.002;2023-03-31T07:02:19;11.17;;;3.40;;
34920;SDS011;21128;50.016;20.002;2023-03-31T07:05:05;9.20;;;3.40;;
34920;SDS011;21128;50.016;20.002;2023-03-31T07:08:04;8.68;;;3.55;;
34920;SDS011;21128;50.016;20.002;2023-03-31T07:10:54;7.28;;;2.62;;
34920;SDS011;21128;50.016;20.002;2023-03-31T07:13:41;7.40;;;3.50;;
34920;SDS011;21128;50.016;20.002;2023-03-31T07:16:27;9.80;;;4.20;;
34920;SDS011;21128;50.016;20.002;2023-03-31T07:19:12;14.07;;;4.53;;
34920;SDS011;21128;50.016;20.002;2023-03-31T07:21:59;9.60;;;3.65;;
34920;SDS011;21128;50.016;20.002;2023-03-31T07:24:45;10.90;;;3.70;;
34920;SDS011;21128;50.016;20.002;2023-03-31T07:27:31;9.17;;;4.73;;
34920;SDS011;21128;50.016;20.002;2023-03-31T07:30:17;8.87;;;3.40;;
34920;SDS011;21128;50.016;20.002;2023-03-31T07:33:04;7.23;;;2.63;;
34920;SDS011;21128;50.016;20.002;2023-03-31T07:35:49;7.60;;;2.65;;
34920;SDS011;21128;50.016;20.002;2023-03-31T07:38:35;5.43;;;2.70;;
34920;SDS011;21128;50.016;20.002;2023-03-31T07:41:21;10.43;;;2.77;;
34920;SDS011;21128;50.016;20.002;2023-03-31T07:44:07;6.60;;;2.33;;
34920;SDS011;21128;50.016;20.002;2023-03-31T07:46:52;6.20;;;2.70;;
34920;SDS011;21128;50.016;20.002;2023-03-31T07:49:38;4.67;;;2.50;;
34920;SDS011;21128;50.016;20.002;2023-03-31T07:52:24;6.00;;;2.80;;
34920;SDS011;21128;50.016;20.002;2023-03-31T07:55:10;8.33;;;2.67;;
34920;SDS011;21128;50.016;20.002;2023-03-31T07:57:56;7.50;;;3.05;;
34920;SDS011;21128;50.016;20.002;2023-03-31T08:00:41;7.13;;;2.70;;
34920;SDS011;21128;50.016;20.002;2023-03-31T08:03:27;10.87;;;3.23;;
34920;SDS011;21128;50.016;20.002;2023-03-31T08:06:18;9.70;;;3.60;;
34920;SDS011;21128;50.016;20.002;2023-03-31T08:09:24;7.30;;;2.83;;
34920;SDS011;21128;50.016;20.002;2023-03-31T08:12:10;6.03;;;2.80;;
34920;SDS011;21128;50.016;20.002;2023-03-31T08:14:57;5.35;;;2.60;;
34920;SDS011;21128;50.016;20.002;2023-03-31T08:17:43;7.53;;;2.63;;
34920;SDS011;21128;50.016;20.002;2023-03-31T08:20:29;5.70;;;2.57;;
34920;SDS011;21128;50.016;20.002;2023-03-31T08:23:15;10.20;;;2.65;;
34920;SDS011;21128;50.016;20.002;2023-03-31T08:26:14;5.33;;;2.43;;
34920;SDS011;21128;50.016;20.002;2023-03-31T08:29:02;8.00;;;2.30;;
34920;SDS011;21128;50.016;20.002;2023-03-31T08:31:48;4.53;;;1.77;;
34920;SDS011;21128;50.016;20.002;2023-03-31T08:34:33;5.87;;;1.50;;
34920;SDS011;21128;50.016;20.002;2023-03-31T08:37:21;5.03;;;1.60;;
34920;SDS011;21128;50.016;20.002;2023-03-31T08:40:06;4.33;;;1.60;;
34920;SDS011;21128;50.016;20.002;2023-03-31T08:43:01;9.20;;;2.70;;
34920;SDS011;21128;50.016;20.002;2023-03-31T08:45:53;5.40;;;1.60;;
34920;SDS011;21128;50.016;20.002;2023-03-31T08:48:40;5.13;;;1.30;;
34920;SDS011;21128;50.016;20.002;2023-03-31T08:51:35;5.50;;;1.63;;
34920;SDS011;21128;50.016;20.002;2023-03-31T08:57:24;5.87;;;1.67;;
34920;SDS011;21128;50.016;20.002;2023-03-31T09:00:16;2.63;;;1.30;;
34920;SDS011;21128;50.016;20.002;2023-03-31T09:03:10;10.53;;;1.80;;
34920;SDS011;21128;50.016;20.002;2023-03-31T09:06:15;8.03;;;1.60;;
34920;SDS011;21128;50.016;20.002;2023-03-31T09:12:37;3.53;;;1.50;;
34920;SDS011;21128;50.016;20.002;2023-03-31T09:15:43;5.20;;;1.60;;
34920;SDS011;21128;50.016;20.002;2023-03-31T09:18:40;4.00;;;1.30;;
34920;SDS011;21128;50.016;20.002;2023-03-31T09:21:31;9.83;;;1.87;;
34920;SDS011;21128;50.016;20.002;2023-03-31T09:24:28;7.13;;;2.37;;
34920;SDS011;21128;50.016;20.002;2023-03-31T09:27:18;4.75;;;1.70;;
34920;SDS011;21128;50.016;20.002;2023-03-31T09:30:13;5.83;;;2.10;;
34920;SDS011;21128;50.016;20.002;2023-03-31T09:33:11;3.20;;;1.33;;
34920;SDS011;21128;50.016;20.002;2023-03-31T09:36:02;4.40;;;1.27;;
34920;SDS011;21128;50.016;20.002;2023-03-31T09:38:58;5.07;;;1.27;;
34920;SDS011;21128;50.016;20.002;2023-03-31T09:41:44;4.73;;;1.20;;
34920;SDS011;21128;50.016;20.002;2023-03-31T09:44:37;4.37;;;1.40;;
34920;SDS011;21128;50.016;20.002;2023-03-31T09:47:38;4.53;;;1.63;;
34920;SDS011;21128;50.016;20.002;2023-03-31T09:50:28;6.93;;;1.50;;
34920;SDS011;21128;50.016;20.002;2023-03-31T09:53:20;4.60;;;1.60;;
34920;SDS011;21128;50.016;20.002;2023-03-31T09:59:32;7.85;;;1.70;;
34920;SDS011;21128;50.016;20.002;2023-03-31T10:02:36;5.05;;;1.25;;
34920;SDS011;21128;50.016;20.002;2023-03-31T10:05:32;6.23;;;1.50;;
34920;SDS011;21128;50.016;20.002;2023-03-31T10:08:38;6.20;;;1.22;;
34920;SDS011;21128;50.016;20.002;2023-03-31T10:11:27;5.77;;;1.13;;
34920;SDS011;21128;50.016;20.002;2023-03-31T10:14:13;3.33;;;1.40;;
34920;SDS011;21128;50.016;20.002;2023-03-31T10:17:01;5.23;;;1.03;;
34920;SDS011;21128;50.016;20.002;2023-03-31T10:19:57;4.60;;;1.30;;
34920;SDS011;21128;50.016;20.002;2023-03-31T10:22:50;2.93;;;1.00;;
34920;SDS011;21128;50.016;20.002;2023-03-31T10:25:36;4.27;;;1.40;;
34920;SDS011;21128;50.016;20.002;2023-03-31T10:28:22;3.80;;;1.20;;
34920;SDS011;21128;50.016;20.002;2023-03-31T10:31:08;5.90;;;1.80;;
34920;SDS011;21128;50.016;20.002;2023-03-31T10:33:55;5.50;;;1.37;;
34920;SDS011;21128;50.016;20.002;2023-03-31T10:36:46;4.00;;;1.50;;
34920;SDS011;21128;50.016;20.002;2023-03-31T10:39:34;2.40;;;1.10;;
34920;SDS011;21128;50.016;20.002;2023-03-31T10:42:21;4.67;;;1.00;;
34920;SDS011;21128;50.016;20.002;2023-03-31T10:48:32;4.15;;;1.55;;
34920;SDS011;21128;50.016;20.002;2023-03-31T10:51:27;7.40;;;1.70;;
34920;SDS011;21128;50.016;20.002;2023-03-31T10:54:13;6.15;;;1.55;;
34920;SDS011;21128;50.016;20.002;2023-03-31T10:56:59;3.43;;;1.40;;
34920;SDS011;21128;50.016;20.002;2023-03-31T11:02:46;4.20;;;1.40;;
34920;SDS011;21128;50.016;20.002;2023-03-31T11:30:49;2.70;;;1.20;;
34920;SDS011;21128;50.016;20.002;2023-03-31T11:34:05;4.40;;;1.60;;
34920;SDS011;21128;50.016;20.002;2023-03-31T11:40:12;4.90;;;2.00;;
34920;SDS011;21128;50.016;20.002;2023-03-31T11:43:30;4.40;;;1.83;;
34920;SDS011;21128;50.016;20.002;2023-03-31T11:46:30;3.07;;;1.40;;
34920;SDS011;21128;50.016;20.002;2023-03-31T11:49:31;5.10;;;1.43;;
34920;SDS011;21128;50.016;20.002;2023-03-31T11:52:42;7.07;;;1.57;;
34920;SDS011;21128;50.016;20.002;2023-03-31T11:55:32;6.03;;;2.10;;
34920;SDS011;21128;50.016;20.002;2023-03-31T11:58:22;6.35;;;1.90;;
34920;SDS011;21128;50.016;20.002;2023-03-31T12:01:19;6.23;;;1.47;;
34920;SDS011;21128;50.016;20.002;2023-03-31T12:07:36;5.70;;;1.50;;
34920;SDS011;21128;50.016;20.002;2023-03-31T12:10:35;5.20;;;1.37;;
34920;SDS011;21128;50.016;20.002;2023-03-31T12:13:34;5.90;;;1.70;;
34920;SDS011;21128;50.016;20.002;2023-03-31T12:16:41;5.00;;;1.40;;
34920;SDS011;21128;50.016;20.002;2023-03-31T12:19:36;7.47;;;1.40;;
34920;SDS011;21128;50.016;20.002;2023-03-31T12:25:27;2.17;;;1.20;;
34920;SDS011;21128;50.016;20.002;2023-03-31T12:28:33;5.10;;;1.80;;
34920;SDS011;21128;50.016;20.002;2023-03-31T12:31:22;7.57;;;1.57;;
34920;SDS011;21128;50.016;20.002;2023-03-31T12:34:11;5.43;;;2.30;;
34920;SDS011;21128;50.016;20.002;2023-03-31T12:40:06;6.00;;;1.97;;
34920;SDS011;21128;50.016;20.002;2023-03-31T12:43:21;4.80;;;1.40;;
34920;SDS011;21128;50.016;20.002;2023-03-31T12:49:14;4.83;;;1.70;;
34920;SDS011;21128;50.016;20.002;2023-03-31T12:58:42;4.57;;;1.80;;
34920;SDS011;21128;50.016;20.002;2023-03-31T13:01:29;3.60;;;1.30;;
34920;SDS011;21128;50.016;20.002;2023-03-31T13:07:04;4.43;;;1.47;;
34920;SDS011;21128;50.016;20.002;2023-03-31T13:13:11;7.70;;;1.47;;
34920;SDS011;21128;50.016;20.002;2023-03-31T13:16:00;7.83;;;1.30;;
34920;SDS011;21128;50.016;20.002;2023-03-31T13:18:50;5.23;;;1.83;;
34920;SDS011;21128;50.016;20.002;2023-03-31T13:24:45;5.70;;;1.60;;
34920;SDS011;21128;50.016;20.002;2023-03-31T13:27:32;3.83;;;1.20;;
34920;SDS011;21128;50.016;20.002;2023-03-31T13:33:27;6.50;;;1.60;;
34920;SDS011;21128;50.016;20.002;2023-03-31T13:42:40;5.33;;;1.42;;
34920;SDS011;21128;50.016;20.002;2023-03-31T13:51:50;8.50;;;1.50;;
34920;SDS011;21128;50.016;20.002;2023-03-31T14:07:39;6.70;;;1.50;;
34920;SDS011;21128;50.016;20.002;2023-03-31T14:10:31;3.95;;;1.30;;
34920;SDS011;21128;50.016;20.002;2023-03-31T14:13:23;4.90;;;1.40;;
34920;SDS011;21128;50.016;20.002;2023-03-31T14:16:17;6.27;;;1.87;;
34920;SDS011;21128;50.016;20.002;2023-03-31T14:22:18;7.80;;;1.50;;
34920;SDS011;21128;50.016;20.002;2023-03-31T14:25:33;2.23;;;1.00;;
34920;SDS011;21128;50.016;20.002;2023-03-31T14:31:41;6.47;;;0.97;;
34920;SDS011;21128;50.016;20.002;2023-03-31T14:37:49;5.10;;;1.10;;
34920;SDS011;21128;50.016;20.002;2023-03-31T14:40:41;6.25;;;0.90;;
34920;SDS011;21128;50.016;20.002;2023-03-31T14:43:32;6.00;;;1.20;;
34920;SDS011;21128;50.016;20.002;2023-03-31T14:46:21;4.03;;;1.40;;
34920;SDS011;21128;50.016;20.002;2023-03-31T14:49:21;6.00;;;1.40;;
34920;SDS011;21128;50.016;20.002;2023-03-31T14:52:20;6.37;;;1.37;;
34920;SDS011;21128;50.016;20.002;2023-03-31T14:55:12;3.93;;;1.20;;
34920;SDS011;21128;50.016;20.002;2023-03-31T14:57:59;4.27;;;1.20;;
34920;SDS011;21128;50.016;20.002;2023-03-31T15:00:46;21.23;;;1.70;;
34920;SDS011;21128;50.016;20.002;2023-03-31T15:03:32;4.17;;;0.87;;
34920;SDS011;21128;50.016;20.002;2023-03-31T15:06:24;7.10;;;1.20;;
34920;SDS011;21128;50.016;20.002;2023-03-31T15:09:20;6.70;;;1.10;;
34920;SDS011;21128;50.016;20.002;2023-03-31T15:12:14;2.30;;;1.03;;
34920;SDS011;21128;50.016;20.002;2023-03-31T15:15:03;1.93;;;0.87;;
34920;SDS011;21128;50.016;20.002;2023-03-31T15:17:51;6.70;;;1.57;;
34920;SDS011;21128;50.016;20.002;2023-03-31T15:20:36;6.20;;;1.70;;
34920;SDS011;21128;50.016;20.002;2023-03-31T15:23:25;3.27;;;1.00;;
34920;SDS011;21128;50.016;20.002;2023-03-31T15:26:12;3.63;;;1.30;;
34920;SDS011;21128;50.016;20.002;2023-03-31T15:29:12;8.13;;;1.30;;
34920;SDS011;21128;50.016;20.002;2023-03-31T15:32:17;7.25;;;1.50;;
34920;SDS011;21128;50.016;20.002;2023-03-31T15:35:20;5.37;;;1.62;;
34920;SDS011;21128;50.016;20.002;2023-03-31T15:38:10;5.05;;;1.20;;
34920;SDS011;21128;50.016;20.002;2023-03-31T15:41:02;4.73;;;1.73;;
34920;SDS011;21128;50.016;20.002;2023-03-31T15:47:26;6.27;;;1.40;;
34920;SDS011;21128;50.016;20.002;2023-03-31T15:50:13;6.47;;;1.90;;
34920;SDS011;21128;50.016;20.002;2023-03-31T15:53:00;6.15;;;1.90;;
34920;SDS011;21128;50.016;20.002;2023-03-31T15:55:47;3.30;;;1.50;;
34920;SDS011;21128;50.016;20.002;2023-03-31T15:58:45;3.20;;;1.67;;
34920;SDS011;21128;50.016;20.002;2023-03-31T16:01:43;4.60;;;1.75;;
34920;SDS011;21128;50.016;20.002;2023-03-31T16:04:30;6.37;;;1.97;;
34920;SDS011;21128;50.016;20.002;2023-03-31T16:07:19;3.77;;;1.43;;
34920;SDS011;21128;50.016;20.002;2023-03-31T16:10:18;7.37;;;1.77;;
34920;SDS011;21128;50.016;20.002;2023-03-31T16:13:07;4.63;;;1.77;;
34920;SDS011;21128;50.016;20.002;2023-03-31T16:15:56;4.93;;;1.73;;
34920;SDS011;21128;50.016;20.002;2023-03-31T16:18:45;5.47;;;1.80;;
34920;SDS011;21128;50.016;20.002;2023-03-31T16:21:37;7.83;;;1.60;;
34920;SDS011;21128;50.016;20.002;2023-03-31T16:24:32;6.65;;;2.15;;
34920;SDS011;21128;50.016;20.002;2023-03-31T16:27:20;5.60;;;1.90;;
34920;SDS011;21128;50.016;20.002;2023-03-31T16:30:09;4.73;;;1.90;;
34920;SDS011;21128;50.016;20.002;2023-03-31T16:33:05;6.00;;;2.27;;
34920;SDS011;21128;50.016;20.002;2023-03-31T16:35:55;5.60;;;2.07;;
34920;SDS011;21128;50.016;20.002;2023-03-31T16:38:42;6.57;;;2.27;;
34920;SDS011;21128;50.016;20.002;2023-03-31T16:41:28;10.83;;;2.97;;
34920;SDS011;21128;50.016;20.002;2023-03-31T16:44:14;8.90;;;3.13;;
34920;SDS011;21128;50.016;20.002;2023-03-31T16:46:59;7.30;;;3.17;;
34920;SDS011;21128;50.016;20.002;2023-03-31T16:49:45;7.93;;;3.47;;
34920;SDS011;21128;50.016;20.002;2023-03-31T16:52:30;6.60;;;3.67;;
34920;SDS011;21128;50.016;20.002;2023-03-31T16:55:16;10.43;;;3.70;;
34920;SDS011;21128;50.016;20.002;2023-03-31T16:58:01;8.07;;;3.57;;
34920;SDS011;21128;50.016;20.002;2023-03-31T17:00:48;9.07;;;3.97;;
34920;SDS011;21128;50.016;20.002;2023-03-31T17:03:34;11.70;;;3.87;;
34920;SDS011;21128;50.016;20.002;2023-03-31T17:06:28;11.57;;;4.17;;
34920;SDS011;21128;50.016;20.002;2023-03-31T17:09:27;9.23;;;3.93;;
34920;SDS011;21128;50.016;20.002;2023-03-31T17:12:13;9.33;;;4.20;;
34920;SDS011;21128;50.016;20.002;2023-03-31T17:14:59;9.20;;;3.80;;
34920;SDS011;21128;50.016;20.002;2023-03-31T17:17:45;12.27;;;4.13;;
34920;SDS011;21128;50.016;20.002;2023-03-31T17:20:30;11.60;;;4.40;;
34920;SDS011;21128;50.016;20.002;2023-03-31T17:23:16;10.73;;;4.23;;
34920;SDS011;21128;50.016;20.002;2023-03-31T17:26:02;10.63;;;4.73;;
34920;SDS011;21128;50.016;20.002;2023-03-31T17:28:50;11.27;;;4.20;;
34920;SDS011;21128;50.016;20.002;2023-03-31T17:31:36;9.53;;;5.13;;
34920;SDS011;21128;50.016;20.002;2023-03-31T17:34:21;10.27;;;4.70;;
34920;SDS011;21128;50.016;20.002;2023-03-31T17:37:07;8.63;;;4.23;;
34920;SDS011;21128;50.016;20.002;2023-03-31T17:39:53;16.90;;;5.13;;
34920;SDS011;21128;50.016;20.002;2023-03-31T17:42:39;17.00;;;4.75;;
34920;SDS011;21128;50.016;20.002;2023-03-31T17:45:25;9.87;;;5.03;;
34920;SDS011;21128;50.016;20.002;2023-03-31T17:48:10;16.73;;;5.70;;
34920;SDS011;21128;50.016;20.002;2023-03-31T17:50:57;16.37;;;5.53;;
34920;SDS011;21128;50.016;20.002;2023-03-31T17:53:52;15.27;;;6.00;;
34920;SDS011;21128;50.016;20.002;2023-03-31T17:56:38;17.53;;;5.97;;
34920;SDS011;21128;50.016;20.002;2023-03-31T17:59:24;12.93;;;5.23;;
34920;SDS011;21128;50.016;20.002;2023-03-31T18:02:10;12.20;;;5.50;;
34920;SDS011;21128;50.016;20.002;2023-03-31T18:04:58;8.90;;;5.60;;
34920;SDS011;21128;50.016;20.002;2023-03-31T18:07:50;12.90;;;5.87;;
34920;SDS011;21128;50.016;20.002;2023-03-31T18:10:37;13.32;;;6.22;;
34920;SDS011;21128;50.016;20.002;2023-03-31T18:13:23;14.63;;;7.70;;
34920;SDS011;21128;50.016;20.002;2023-03-31T18:16:09;12.53;;;6.27;;
34920;SDS011;21128;50.016;20.002;2023-03-31T18:18:56;14.25;;;6.20;;
34920;SDS011;21128;50.016;20.002;2023-03-31T18:21:42;11.40;;;6.40;;
34920;SDS011;21128;50.016;20.002;2023-03-31T18:24:27;13.97;;;6.70;;
34920;SDS011;21128;50.016;20.002;2023-03-31T18:27:13;16.27;;;6.90;;
34920;SDS011;21128;50.016;20.002;2023-03-31T18:29:59;13.00;;;6.40;;
34920;SDS011;21128;50.016;20.002;2023-03-31T18:32:45;16.70;;;7.30;;
34920;SDS011;21128;50.016;20.002;2023-03-31T18:35:30;13.15;;;7.05;;
34920;SDS011;21128;50.016;20.002;2023-03-31T18:38:17;14.05;;;6.80;;
34920;SDS011;21128;50.016;20.002;2023-03-31T18:41:04;15.50;;;6.40;;
34920;SDS011;21128;50.016;20.002;2023-03-31T18:43:49;12.50;;;6.53;;
34920;SDS011;21128;50.016;20.002;2023-03-31T18:46:36;14.43;;;6.90;;
34920;SDS011;21128;50.016;20.002;2023-03-31T18:49:22;16.60;;;7.50;;
34920;SDS011;21128;50.016;20.002;2023-03-31T18:52:08;15.43;;;7.37;;
34920;SDS011;21128;50.016;20.002;2023-03-31T18:54:53;13.40;;;6.90;;
34920;SDS011;21128;50.016;20.002;2023-03-31T18:57:40;15.60;;;6.75;;
34920;SDS011;21128;50.016;20.002;2023-03-31T19:00:26;16.00;;;6.97;;
34920;SDS011;21128;50.016;20.002;2023-03-31T19:03:11;15.07;;;6.93;;
34920;SDS011;21128;50.016;20.002;2023-03-31T19:08:48;12.47;;;6.00;;
34920;SDS011;21128;50.016;20.002;2023-03-31T19:11:41;11.43;;;6.53;;
34920;SDS011;21128;50.016;20.002;2023-03-31T19:14:27;14.97;;;7.53;;
34920;SDS011;21128;50.016;20.002;2023-03-31T19:17:14;14.93;;;7.40;;
34920;SDS011;21128;50.016;20.002;2023-03-31T19:20:02;12.70;;;6.40;;